CheckWX is a tool to help pilots better visualize weather data.  It is not intended as a substitute for an official pre-flight weather briefing.

08:49:45 UTC

CZFM METAR
Fort McPherson Airport
Fort Mcpherson, Canada
Current

9 hours ago

CZFM 220000Z 15003KT 35SM SCT040 M19/M22 A3004 RMK SC3 /S00/ AFT OOOOZ SN CVR/MUCH LOOSE LAST OBS/NXT 221400Z SLP180
Observed
Feb-22 @ 00:00 UTC
Wind
  • 150° at 3 KTS
Visibility
35 SM
Flight Rules
VFR
Cloud Levels
  • Scattered at 4,000' AGL
Temperature
-19°C / -2°F
Dewpoint
-22°C / -8°F
Humidity
77%
Altimeter
30.04" Hg
Pressure
1018 hPa
Previous

10 hours ago

CZFM 212300Z 17003KT 35SM FEW100 M19/M22 A3003 RMK AC1 SLP177
Observed
Feb-21 @ 23:00 UTC
Wind
  • 170° at 3 KTS
Visibility
35 SM
Flight Rules
VFR
Cloud Levels
  • Few at 10,000' AGL
Temperature
-19°C / -2°F
Dewpoint
-22°C / -8°F
Humidity
77%
Altimeter
30.03" Hg
Pressure
1017.7 hPa
Previous

11 hours ago

CZFM 212200Z 15005KT 35SM FEW100 M20/M23 A3002 RMK AC1 AC TR SLP174
Observed
Feb-21 @ 22:00 UTC
Wind
  • 150° at 5 KTS
Visibility
35 SM
Flight Rules
VFR
Cloud Levels
  • Few at 10,000' AGL
Temperature
-20°C / -4°F
Dewpoint
-23°C / -9°F
Humidity
77%
Altimeter
30.02" Hg
Pressure
1017.4 hPa